createdAt,value
2019-01-21T00:00:35.669Z,20.37
2019-01-21T00:02:37.057Z,21.20
2019-01-21T00:04:38.496Z,21.97
2019-01-21T00:06:39.927Z,19.12
2019-01-21T00:08:41.283Z,23.92
2019-01-21T00:10:42.678Z,21.73
2019-01-21T00:12:44.093Z,24.10
2019-01-21T00:14:45.617Z,25.00
2019-01-21T00:16:47.063Z,23.32
2019-01-21T00:18:48.432Z,22.42
2019-01-21T00:20:49.989Z,25.62
2019-01-21T00:22:51.429Z,21.00
2019-01-21T00:24:52.791Z,23.20
2019-01-21T00:26:54.301Z,20.45
2019-01-21T00:28:55.728Z,20.45
2019-01-21T00:30:57.112Z,22.52
2019-01-21T00:32:58.535Z,23.75
2019-01-21T00:34:59.920Z,26.48
2019-01-21T00:37:03.527Z,25.80
2019-01-21T00:39:05.390Z,30.50
2019-01-21T00:41:06.743Z,26.82
2019-01-21T00:43:08.133Z,24.55
2019-01-21T00:45:09.637Z,24.92
2019-01-21T00:47:11.004Z,24.67
2019-01-21T00:49:12.386Z,25.62
2019-01-21T00:51:13.840Z,26.62
2019-01-21T00:53:15.223Z,27.55
2019-01-21T00:55:16.573Z,28.15
2019-01-21T00:57:18.015Z,27.37
2019-01-21T00:59:19.376Z,26.10
2019-01-21T01:01:20.806Z,26.20
2019-01-21T01:03:22.249Z,25.40
2019-01-21T01:05:23.829Z,25.95
2019-01-21T01:07:25.209Z,25.72
2019-01-21T01:09:26.621Z,24.30
2019-01-21T01:11:28.057Z,26.45
2019-01-21T01:13:29.444Z,26.93
2019-01-21T01:15:30.813Z,24.95
2019-01-21T01:17:37.081Z,25.40
2019-01-21T01:19:35.520Z,25.75
2019-01-21T01:21:36.890Z,26.37
2019-01-21T01:23:38.442Z,23.62
2019-01-21T01:25:39.808Z,25.52
2019-01-21T01:27:41.191Z,24.50
2019-01-21T01:29:42.630Z,25.80
2019-01-21T01:31:44.010Z,25.30
2019-01-21T01:33:45.363Z,25.95
2019-01-21T01:35:46.795Z,21.68
2019-01-21T01:37:48.175Z,23.73
2019-01-21T01:39:49.621Z,27.27
2019-01-21T01:41:51.250Z,22.95
2019-01-21T01:43:52.633Z,24.18
2019-01-21T01:45:54.018Z,26.93
2019-01-21T01:47:59.370Z,27.85
2019-01-21T01:50:01.047Z,26.05
2019-01-21T01:52:02.436Z,27.95
2019-01-21T01:54:04.069Z,25.55
2019-01-21T01:56:05.476Z,23.95
2019-01-21T01:58:06.960Z,24.00
2019-01-21T02:00:13.703Z,22.62
2019-01-21T02:02:15.079Z,24.18
2019-01-21T02:04:16.427Z,23.73
2019-01-21T02:06:17.904Z,19.82
2019-01-21T02:08:19.322Z,22.90
2019-01-21T02:10:20.703Z,18.15
2019-01-21T02:12:22.669Z,20.25
2019-01-21T02:14:24.026Z,22.10
2019-01-21T02:16:25.415Z,22.52
2019-01-21T02:18:26.825Z,20.70
2019-01-21T02:20:28.187Z,19.92
2019-01-21T02:22:30.173Z,24.23
2019-01-21T02:24:34.485Z,24.77
2019-01-21T02:26:40.900Z,26.45
2019-01-21T02:28:50.770Z,25.23
2019-01-21T02:31:12.896Z,27.87
2019-01-21T02:33:22.714Z,27.65
2019-01-21T02:35:29.851Z,26.12
2019-01-21T02:37:42.956Z,27.05
2019-01-21T02:40:27.972Z,21.12
2019-01-21T02:43:01.536Z,22.48
2019-01-21T02:45:31.282Z,27.20
2019-01-21T02:47:38.654Z,27.67
2019-01-21T02:50:04.112Z,26.97
2019-01-21T02:52:25.570Z,27.58
2019-01-21T02:55:11.756Z,25.65
2019-01-21T02:57:47.422Z,22.20
2019-01-21T03:00:06.504Z,19.82
2019-01-21T03:02:29.197Z,21.25
2019-01-21T03:05:09.592Z,18.20
2019-01-21T03:07:34.026Z,20.40
2019-01-21T03:09:47.089Z,18.17
2019-01-21T03:12:00.184Z,20.82
2019-01-21T03:14:34.040Z,22.67
2019-01-21T03:17:14.239Z,20.62
2019-01-21T03:20:00.568Z,21.62
2019-01-21T03:22:22.594Z,21.45
2019-01-21T03:24:35.501Z,18.95
2019-01-21T03:26:48.164Z,21.02
2019-01-21T03:29:17.866Z,21.62
2019-01-21T03:31:47.690Z,20.55
2019-01-21T03:34:23.210Z,19.35
2019-01-21T03:37:07.862Z,21.42
2019-01-21T03:39:33.017Z,19.40
2019-01-21T03:41:43.097Z,17.17
2019-01-21T03:44:08.099Z,16.82
2019-01-21T03:46:35.998Z,19.62
2019-01-21T03:48:39.679Z,18.23
2019-01-21T03:50:52.491Z,18.60
2019-01-21T03:53:14.852Z,17.92
2019-01-21T03:55:17.142Z,18.35
2019-01-21T03:57:33.102Z,19.07
2019-01-21T03:59:52.122Z,18.80
2019-01-21T04:02:13.825Z,17.90
2019-01-21T04:04:52.178Z,25.43
2019-01-21T04:06:58.721Z,23.70
2019-01-21T04:09:24.260Z,25.75
2019-01-21T04:11:31.365Z,21.12
2019-01-21T04:13:47.238Z,20.97
2019-01-21T04:15:57.310Z,23.75
2019-01-21T04:18:24.850Z,22.93
2019-01-21T04:20:59.313Z,25.70
2019-01-21T04:23:24.235Z,25.68
2019-01-21T04:25:49.412Z,25.30
2019-01-21T04:28:11.044Z,26.57
2019-01-21T04:30:36.300Z,28.15
2019-01-21T04:32:49.239Z,25.20
2019-01-21T04:34:59.081Z,25.00
2019-01-21T04:37:24.303Z,27.60
2019-01-21T04:39:57.031Z,25.62
2019-01-21T04:42:19.012Z,27.98
2019-01-21T04:44:49.858Z,26.42
2019-01-21T04:47:05.654Z,26.17
2019-01-21T04:49:24.798Z,25.60
2019-01-21T04:51:46.699Z,24.45
2019-01-21T04:54:05.694Z,24.32
2019-01-21T04:56:33.865Z,18.85
2019-01-21T04:58:56.036Z,23.85
2019-01-21T05:01:14.425Z,27.35
2019-01-21T05:03:36.634Z,23.98
2019-01-21T05:05:43.760Z,26.75
2019-01-21T05:08:10.282Z,29.60
2019-01-21T05:10:29.494Z,21.27
2019-01-21T05:12:37.056Z,27.87
2019-01-21T05:14:53.029Z,26.23
2019-01-21T05:17:23.832Z,25.62
2019-01-21T05:19:52.101Z,20.52
2019-01-21T05:22:24.474Z,23.77
2019-01-21T05:24:46.663Z,22.07
2019-01-21T05:27:25.663Z,23.38
2019-01-21T05:29:54.033Z,28.20
2019-01-21T05:32:21.992Z,26.77
2019-01-21T05:34:41.178Z,31.68
2019-01-21T05:37:08.938Z,51.70
2019-01-21T05:39:32.731Z,32.40
2019-01-21T05:42:11.372Z,27.13
2019-01-21T05:44:45.709Z,24.72
2019-01-21T05:47:13.679Z,27.15
2019-01-21T05:49:33.130Z,27.20
2019-01-21T05:52:14.513Z,27.17
2019-01-21T05:54:48.699Z,30.43
2019-01-21T05:57:16.304Z,33.45
2019-01-21T05:59:55.154Z,29.87
2019-01-21T06:02:02.253Z,27.15
2019-01-21T06:04:21.071Z,29.77
2019-01-21T06:06:52.172Z,29.85
2019-01-21T06:09:29.500Z,29.23
2019-01-21T06:11:56.282Z,32.60
2019-01-21T06:14:12.223Z,31.35
2019-01-21T06:16:43.272Z,32.00
2019-01-21T06:18:59.022Z,27.73
2019-01-21T06:21:20.544Z,31.90
2019-01-21T06:23:30.671Z,31.35
2019-01-21T06:26:15.317Z,31.62
2019-01-21T06:28:37.299Z,27.67
2019-01-21T06:31:24.583Z,32.83
2019-01-21T06:33:34.267Z,29.07
2019-01-21T06:35:50.384Z,33.20
2019-01-21T06:38:00.241Z,30.00
2019-01-21T06:40:35.640Z,33.35
2019-01-21T06:42:51.605Z,31.42
2019-01-21T06:45:30.185Z,31.25
2019-01-21T06:48:05.841Z,28.80
2019-01-21T06:50:27.536Z,32.15
2019-01-21T06:52:46.028Z,30.30
2019-01-21T06:54:53.122Z,24.80
2019-01-21T06:57:11.596Z,28.67
2019-01-21T06:59:36.548Z,26.52
2019-01-21T07:01:49.565Z,31.45
2019-01-21T07:04:32.957Z,31.68
2019-01-21T07:06:45.942Z,26.82
2019-01-21T07:08:56.099Z,31.95
2019-01-21T07:11:11.513Z,29.32
2019-01-21T07:13:51.875Z,27.02
2019-01-21T07:16:27.318Z,26.50
2019-01-21T07:18:49.018Z,30.95
2019-01-21T07:21:12.793Z,33.38
2019-01-21T07:23:31.697Z,30.77
2019-01-21T07:25:45.070Z,30.90
2019-01-21T07:28:12.574Z,30.43
2019-01-21T07:30:34.493Z,31.10
2019-01-21T07:32:50.258Z,27.65
2019-01-21T07:35:12.209Z,24.40
2019-01-21T07:37:34.257Z,30.80
2019-01-21T07:39:58.709Z,31.23
2019-01-21T07:42:08.549Z,34.27
2019-01-21T07:44:39.062Z,37.88
2019-01-21T07:47:03.599Z,29.02
2019-01-21T07:49:36.248Z,30.37
2019-01-21T07:52:03.077Z,29.02
2019-01-21T07:54:39.758Z,28.60
2019-01-21T07:57:01.425Z,24.77
2019-01-21T07:59:44.408Z,24.60
2019-01-21T08:02:09.392Z,24.70
2019-01-21T08:04:36.202Z,31.12
2019-01-21T08:06:52.165Z,30.43
2019-01-21T08:09:08.138Z,27.90
2019-01-21T08:11:39.545Z,28.15
2019-01-21T08:14:09.341Z,30.00
2019-01-21T08:16:31.457Z,27.65
2019-01-21T08:19:08.159Z,29.85
2019-01-21T08:21:27.057Z,27.48
2019-01-21T08:23:49.117Z,28.85
2019-01-21T08:26:10.857Z,26.82
2019-01-21T08:28:42.307Z,25.97
2019-01-21T08:31:16.197Z,26.62
2019-01-21T08:33:35.631Z,25.00
2019-01-21T08:36:11.608Z,28.45
2019-01-21T08:38:47.083Z,26.95
2019-01-21T08:40:59.937Z,28.98
2019-01-21T08:43:30.785Z,28.80
2019-01-21T08:45:46.955Z,25.35
2019-01-21T08:47:54.027Z,28.27
2019-01-21T08:50:16.040Z,28.35
2019-01-21T08:52:23.156Z,27.35
2019-01-21T08:54:39.103Z,30.12
2019-01-21T08:57:11.799Z,26.68
2019-01-21T08:59:30.782Z,25.00
2019-01-21T09:02:10.543Z,23.75
2019-01-21T09:04:53.551Z,25.37
2019-01-21T09:07:18.817Z,24.98
2019-01-21T09:09:34.671Z,26.65
2019-01-21T09:12:26.999Z,23.95
2019-01-21T09:14:49.281Z,22.77
2019-01-21T09:17:32.657Z,23.07
2019-01-21T09:19:48.599Z,23.30
2019-01-21T09:22:16.618Z,24.12
2019-01-21T09:24:55.285Z,33.33
2019-01-21T09:27:13.933Z,29.70
2019-01-21T09:29:33.069Z,26.25
2019-01-21T09:31:48.674Z,23.12
2019-01-21T09:34:19.691Z,23.10
2019-01-21T09:36:44.274Z,27.00
2019-01-21T09:39:11.016Z,20.15
2019-01-21T09:41:32.980Z,23.73
2019-01-21T09:43:45.680Z,23.65
2019-01-21T09:46:04.601Z,27.10
2019-01-21T09:48:05.676Z,27.40
2019-01-21T09:50:07.095Z,23.92
2019-01-21T09:52:10.677Z,27.52
2019-01-21T09:54:12.252Z,23.57
2019-01-21T09:56:13.771Z,25.62
2019-01-21T09:58:15.473Z,25.65
2019-01-21T10:00:19.102Z,24.27
2019-01-21T10:02:29.013Z,26.05
2019-01-21T10:04:38.341Z,26.75
2019-01-21T10:06:44.543Z,25.40
2019-01-21T10:08:51.629Z,27.65
2019-01-21T10:11:16.334Z,26.55
2019-01-21T10:13:41.096Z,28.65
2019-01-21T10:16:00.329Z,28.57
2019-01-21T10:18:16.336Z,26.85
2019-01-21T10:20:28.982Z,28.60
2019-01-21T10:23:06.329Z,27.62
2019-01-21T10:25:16.203Z,29.32
2019-01-21T10:27:45.258Z,26.95
2019-01-21T10:30:23.967Z,28.57
2019-01-21T10:32:48.710Z,28.35
2019-01-21T10:35:33.370Z,29.48
2019-01-21T10:38:13.584Z,24.65
2019-01-21T10:40:32.835Z,29.18
2019-01-21T10:42:45.650Z,27.80
2019-01-21T10:45:07.961Z,26.60
2019-01-21T10:47:30.133Z,29.77
2019-01-21T10:53:06.026Z,27.62
2019-01-21T10:55:21.968Z,28.52
2019-01-21T10:57:46.480Z,27.25
2019-01-21T11:00:10.207Z,27.90
2019-01-21T11:02:40.731Z,26.85
2019-01-21T11:04:53.350Z,30.45
2019-01-21T11:07:12.277Z,25.52
2019-01-21T11:09:19.353Z,26.00
2019-01-21T11:11:41.364Z,27.00
2019-01-21T11:14:06.458Z,28.45
2019-01-21T11:17:07.471Z,27.60
2019-01-21T11:19:50.552Z,25.75
2019-01-21T11:22:33.584Z,26.80
2019-01-21T11:25:16.643Z,25.25
2019-01-21T11:27:59.669Z,24.40
2019-01-21T11:30:42.768Z,22.90
2019-01-21T11:33:43.782Z,24.02
2019-01-21T11:36:44.834Z,26.17
2019-01-21T11:39:45.829Z,26.87
2019-01-21T11:42:46.971Z,22.45
2019-01-21T11:45:30.007Z,26.55
2019-01-21T11:48:31.045Z,25.40
2019-01-21T11:51:14.084Z,30.68
2019-01-21T11:54:15.130Z,27.95
2019-01-21T11:56:58.150Z,30.15
2019-01-21T11:59:41.232Z,40.33
2019-01-21T12:05:29.601Z,22.48
2019-01-21T12:11:37.900Z,23.70
2019-01-21T12:14:20.934Z,24.37
2019-01-21T12:17:21.977Z,24.05
2019-01-21T12:20:23.025Z,26.02
2019-01-21T12:23:06.107Z,24.23
2019-01-21T12:25:49.123Z,26.00
2019-01-21T12:28:50.175Z,25.17
2019-01-21T12:31:51.163Z,23.50
2019-01-21T12:34:34.238Z,24.67
2019-01-21T12:37:17.382Z,23.77
2019-01-21T12:40:00.410Z,24.30
2019-01-21T12:42:43.492Z,24.92
2019-01-21T12:45:44.564Z,28.52
2019-01-21T12:48:27.595Z,23.27
2019-01-21T12:51:28.615Z,27.73
2019-01-21T12:54:29.605Z,28.17
2019-01-21T12:57:30.682Z,25.92
2019-01-21T13:00:13.720Z,29.48
2019-01-21T13:03:14.771Z,26.23
2019-01-21T13:06:15.861Z,28.05
2019-01-21T13:08:58.981Z,28.12
2019-01-21T13:11:42.086Z,25.90
2019-01-21T13:14:25.100Z,23.10
2019-01-21T13:17:08.202Z,26.25
2019-01-21T13:20:09.213Z,25.85
2019-01-21T13:22:52.287Z,26.23
2019-01-21T13:25:35.331Z,26.55
2019-01-21T13:28:16.933Z,26.85
2019-01-21T13:31:00.013Z,26.65
2019-01-21T13:33:43.073Z,27.90
2019-01-21T13:36:26.165Z,25.88
2019-01-21T13:39:09.237Z,29.75
2019-01-21T13:41:52.273Z,24.80
2019-01-21T13:44:29.522Z,24.67
2019-01-21T13:47:36.970Z,26.62
2019-01-21T13:50:02.850Z,25.27
2019-01-21T13:52:24.500Z,26.15
2019-01-21T13:54:34.312Z,27.62
2019-01-21T13:56:41.409Z,25.32
2019-01-21T13:59:09.619Z,25.52
2019-01-21T14:01:25.234Z,26.23
2019-01-21T14:03:44.188Z,27.10
2019-01-21T14:06:12.388Z,26.68
2019-01-21T14:09:00.702Z,24.90
2019-01-21T14:11:10.554Z,25.82
2019-01-21T14:13:29.402Z,26.68
2019-01-21T14:15:44.949Z,25.50
2019-01-21T14:18:14.225Z,25.85
2019-01-21T14:20:26.968Z,29.12
2019-01-21T14:22:43.176Z,28.15
2019-01-21T14:25:13.180Z,27.87
2019-01-21T14:27:50.601Z,27.90
2019-01-21T14:30:00.526Z,29.52
2019-01-21T14:32:24.758Z,30.10
2019-01-21T14:34:40.768Z,26.27
2019-01-21T14:36:57.046Z,27.07
2019-01-21T14:39:18.920Z,28.62
2019-01-21T14:41:44.165Z,27.58
2019-01-21T14:44:11.103Z,29.10
2019-01-21T14:46:30.265Z,26.93
2019-01-21T14:49:04.566Z,26.62
2019-01-21T14:51:36.997Z,28.30
2019-01-21T14:54:06.424Z,28.12
2019-01-21T14:56:34.688Z,26.80
2019-01-21T14:59:11.894Z,29.02
2019-01-21T15:01:49.538Z,27.07
2019-01-21T15:04:29.728Z,27.13
2019-01-21T15:06:48.766Z,25.60
2019-01-21T15:08:58.806Z,28.60
2019-01-21T15:11:27.132Z,28.60
2019-01-21T15:13:46.508Z,28.32
2019-01-21T15:15:59.367Z,30.60
2019-01-21T15:18:12.597Z,27.45
2019-01-21T15:20:19.697Z,27.80
2019-01-21T15:22:29.761Z,31.25
2019-01-21T15:24:48.490Z,27.70
2019-01-21T15:27:01.684Z,29.05
2019-01-21T15:29:39.158Z,27.00
2019-01-21T15:32:01.122Z,31.48
2019-01-21T15:34:45.871Z,29.10
2019-01-21T15:37:24.933Z,30.10
2019-01-21T15:40:14.763Z,28.15
2019-01-21T15:42:46.333Z,29.30
2019-01-21T15:45:05.691Z,29.23
2019-01-21T15:47:27.513Z,30.62
2019-01-21T15:49:37.626Z,29.42
2019-01-21T15:51:44.735Z,31.40
2019-01-21T15:53:51.799Z,29.60
2019-01-21T15:56:10.989Z,32.38
2019-01-21T15:58:39.592Z,32.42
2019-01-21T16:00:55.472Z,34.78
2019-01-21T16:03:31.273Z,29.15
2019-01-21T16:06:12.203Z,31.50
2019-01-21T16:08:17.550Z,32.30
2019-01-21T16:10:36.669Z,34.15
2019-01-21T16:13:04.865Z,30.43
2019-01-21T16:15:24.367Z,30.90
2019-01-21T16:17:42.760Z,34.00
2019-01-21T16:19:44.273Z,30.27
2019-01-21T16:22:31.756Z,34.40
2019-01-21T16:24:53.911Z,34.30
2019-01-21T16:27:07.053Z,33.67
2019-01-21T16:29:14.119Z,31.50
2019-01-21T16:31:22.266Z,32.95
2019-01-21T16:33:32.479Z,34.85
2019-01-21T16:35:45.479Z,33.55
2019-01-21T16:38:10.968Z,31.55
2019-01-21T16:40:27.070Z,31.17
2019-01-21T16:42:28.107Z,31.85
2019-01-21T16:44:29.539Z,33.00
2019-01-21T16:46:30.890Z,33.88
2019-01-21T16:48:32.252Z,34.27
2019-01-21T16:50:33.663Z,36.05
2019-01-21T16:52:35.012Z,33.15
2019-01-21T16:54:36.383Z,38.58
2019-01-21T16:56:37.808Z,33.53
2019-01-21T16:58:39.176Z,36.60
2019-01-21T17:00:40.525Z,35.20
2019-01-21T17:02:41.914Z,33.30
2019-01-21T17:04:43.261Z,32.03
2019-01-21T17:06:44.603Z,35.40
2019-01-21T17:08:46.150Z,35.83
2019-01-21T17:10:47.613Z,36.45
2019-01-21T17:12:48.990Z,35.05
2019-01-21T17:14:57.224Z,34.50
2019-01-21T17:16:53.812Z,35.95
2019-01-21T17:18:55.175Z,31.90
2019-01-21T17:20:56.614Z,34.30
2019-01-21T17:22:58.056Z,32.75
2019-01-21T17:24:59.394Z,32.60
2019-01-21T17:27:00.791Z,32.95
2019-01-21T17:29:02.248Z,33.40
2019-01-21T17:31:03.756Z,35.25
2019-01-21T17:33:05.477Z,36.53
2019-01-21T17:35:09.428Z,34.92
2019-01-21T17:37:10.874Z,36.53
2019-01-21T17:39:12.365Z,33.80
2019-01-21T17:41:14.173Z,35.98
2019-01-21T17:43:15.522Z,39.63
2019-01-21T17:45:18.801Z,40.12
2019-01-21T17:47:20.158Z,38.85
2019-01-21T17:49:21.507Z,37.65
2019-01-21T17:51:22.998Z,37.30
2019-01-21T17:53:24.335Z,39.30
2019-01-21T17:55:25.800Z,42.05
2019-01-21T17:57:27.204Z,39.20
2019-01-21T17:59:28.554Z,36.95
2019-01-21T18:01:29.888Z,41.77
2019-01-21T18:03:31.321Z,37.50
2019-01-21T18:05:32.759Z,41.28
2019-01-21T18:07:34.127Z,42.23
2019-01-21T18:09:35.542Z,44.30
2019-01-21T18:11:41.259Z,46.08
2019-01-21T18:13:40.158Z,43.87
2019-01-21T18:15:41.566Z,40.90
2019-01-21T18:17:42.915Z,40.52
2019-01-21T18:19:44.295Z,43.05
2019-01-21T18:21:46.834Z,38.78
2019-01-21T18:23:48.224Z,40.05
2019-01-21T18:25:49.578Z,40.75
2019-01-21T18:27:51.049Z,40.33
2019-01-21T18:29:52.404Z,38.95
2019-01-21T18:31:53.758Z,40.12
2019-01-21T18:33:55.184Z,38.00
2019-01-21T18:35:56.529Z,35.88
2019-01-21T18:37:57.940Z,39.60
2019-01-21T18:39:59.469Z,40.52
2019-01-21T18:42:00.932Z,41.00
2019-01-21T18:44:02.294Z,41.37
2019-01-21T18:46:03.821Z,38.67
2019-01-21T18:48:05.384Z,43.90
2019-01-21T18:50:09.649Z,40.25
2019-01-21T18:52:11.555Z,43.13
2019-01-21T18:54:12.917Z,40.33
2019-01-21T18:56:14.275Z,39.40
2019-01-21T18:58:15.672Z,41.75
2019-01-21T19:00:21.836Z,40.92
2019-01-21T19:02:23.196Z,41.00
2019-01-21T19:04:24.619Z,38.98
2019-01-21T19:06:25.973Z,40.08
2019-01-21T19:08:27.321Z,36.30
2019-01-21T19:10:28.739Z,40.03
2019-01-21T19:12:30.153Z,40.98
2019-01-21T19:14:31.581Z,38.45
2019-01-21T19:16:32.930Z,39.53
2019-01-21T19:18:34.383Z,43.92
2019-01-21T19:20:35.735Z,40.55
2019-01-21T19:22:37.107Z,40.08
2019-01-21T19:24:38.572Z,37.83
2019-01-21T19:26:40.002Z,41.88
2019-01-21T19:28:41.420Z,41.80
2019-01-21T19:30:42.804Z,42.08
2019-01-21T19:32:44.304Z,39.92
2019-01-21T19:34:45.729Z,44.13
2019-01-21T19:36:47.089Z,44.67
2019-01-21T19:38:48.688Z,41.58
2019-01-21T19:40:50.233Z,44.60
2019-01-21T19:42:51.586Z,40.03
2019-01-21T19:44:52.929Z,40.67
2019-01-21T19:46:54.583Z,42.65
2019-01-21T19:48:55.926Z,42.13
2019-01-21T19:50:57.297Z,42.93
2019-01-21T19:52:58.723Z,42.95
2019-01-21T19:55:00.153Z,42.03
2019-01-21T19:57:01.555Z,43.63
2019-01-21T19:59:03.082Z,43.20
2019-01-21T20:01:04.427Z,42.40
2019-01-21T20:03:05.780Z,43.95
2019-01-21T20:05:08.895Z,44.95
2019-01-21T20:07:10.258Z,43.33
2019-01-21T20:09:11.602Z,42.75
2019-01-21T20:11:13.021Z,42.70
2019-01-21T20:13:14.373Z,43.78
2019-01-21T20:15:17.158Z,43.38
2019-01-21T20:17:18.580Z,40.88
2019-01-21T20:19:19.940Z,45.85
2019-01-21T20:21:21.320Z,46.40
2019-01-21T20:23:22.729Z,41.77
2019-01-21T20:25:24.388Z,46.75
2019-01-21T20:27:25.749Z,41.20
2019-01-21T20:29:27.161Z,41.40
2019-01-21T20:31:28.496Z,43.35
2019-01-21T20:33:31.031Z,45.38
2019-01-21T20:35:32.377Z,39.85
2019-01-21T20:37:33.721Z,42.08
2019-01-21T20:39:35.184Z,43.87
2019-01-21T20:41:36.645Z,44.40
2019-01-21T20:43:38.005Z,42.65
2019-01-21T20:45:39.360Z,43.35
2019-01-21T20:47:41.156Z,41.75
2019-01-21T20:49:42.518Z,41.45
2019-01-21T20:51:43.852Z,41.23
2019-01-21T20:53:45.394Z,41.68
2019-01-21T20:55:46.741Z,43.90
2019-01-21T20:57:48.195Z,42.20
2019-01-21T20:59:49.616Z,41.37
2019-01-21T21:01:51.464Z,42.62
2019-01-21T21:03:52.841Z,43.30
2019-01-21T21:05:54.290Z,40.63
2019-01-21T21:07:55.668Z,45.00
2019-01-21T21:09:57.000Z,46.68
2019-01-21T21:11:58.402Z,47.35
2019-01-21T21:13:59.734Z,43.30
2019-01-21T21:16:01.072Z,43.10
2019-01-21T21:18:02.784Z,43.23
2019-01-21T21:20:08.858Z,43.10
2019-01-21T21:22:10.194Z,45.88
2019-01-21T21:24:11.598Z,44.40
2019-01-21T21:26:12.966Z,40.43
2019-01-21T21:28:14.366Z,45.50
2019-01-21T21:30:28.268Z,41.42
2019-01-21T21:32:29.687Z,44.90
2019-01-21T21:34:31.029Z,43.50
2019-01-21T21:36:32.393Z,43.50
2019-01-21T21:38:33.802Z,48.52
2019-01-21T21:40:35.611Z,47.93
2019-01-21T21:42:37.099Z,41.50
2019-01-21T21:44:38.552Z,43.68
2019-01-21T21:46:39.928Z,43.75
2019-01-21T21:48:41.297Z,42.23
2019-01-21T21:50:42.697Z,42.65
2019-01-21T21:52:44.040Z,44.20
2019-01-21T21:54:45.421Z,42.73
2019-01-21T21:56:47.136Z,46.10
2019-01-21T21:58:48.684Z,45.25
2019-01-21T22:00:50.028Z,44.20
2019-01-21T22:02:51.524Z,45.45
2019-01-21T22:04:53.057Z,45.30
2019-01-21T22:06:54.420Z,49.18
2019-01-21T22:08:56.288Z,44.13
2019-01-21T22:10:57.695Z,43.95
2019-01-21T22:12:59.063Z,48.15
2019-01-21T22:15:00.416Z,44.58
2019-01-21T22:17:01.801Z,48.00
2019-01-21T22:19:03.254Z,44.85
2019-01-21T22:21:04.712Z,42.67
2019-01-21T22:23:06.108Z,42.20
2019-01-21T22:25:08.264Z,46.92
2019-01-21T22:27:10.123Z,49.53
2019-01-21T22:29:11.541Z,41.92
2019-01-21T22:31:12.990Z,48.28
2019-01-21T22:33:14.355Z,46.35
2019-01-21T22:35:15.772Z,46.73
2019-01-21T22:37:17.537Z,46.85
2019-01-21T22:39:18.920Z,43.85
2019-01-21T22:41:20.441Z,47.40
2019-01-21T22:43:21.802Z,46.00
2019-01-21T22:45:23.247Z,46.20
2019-01-21T22:47:24.789Z,47.15
2019-01-21T22:49:26.139Z,43.23
2019-01-21T22:51:27.647Z,47.88
2019-01-21T22:53:29.055Z,45.52
2019-01-21T22:55:30.397Z,43.23
2019-01-21T22:57:31.747Z,45.35
2019-01-21T22:59:33.136Z,43.60
2019-01-21T23:01:37.796Z,44.10
2019-01-21T23:03:39.298Z,45.12
2019-01-21T23:05:40.967Z,45.45
2019-01-21T23:07:42.316Z,45.10
2019-01-21T23:09:43.877Z,45.10
2019-01-21T23:11:45.239Z,45.08
2019-01-21T23:13:46.577Z,43.55
2019-01-21T23:15:48.384Z,48.80
2019-01-21T23:17:49.744Z,47.40
2019-01-21T23:19:52.201Z,43.80
2019-01-21T23:21:53.627Z,43.73
2019-01-21T23:23:54.988Z,46.92
2019-01-21T23:25:56.340Z,46.88
2019-01-21T23:27:57.745Z,47.03
2019-01-21T23:29:59.082Z,47.43
2019-01-21T23:32:00.461Z,46.37
2019-01-21T23:34:02.653Z,49.08
2019-01-21T23:36:04.115Z,49.58
2019-01-21T23:38:05.453Z,48.63
2019-01-21T23:40:09.460Z,45.60
2019-01-21T23:42:10.881Z,52.05
2019-01-21T23:44:12.700Z,51.35
2019-01-21T23:46:14.040Z,44.40
2019-01-21T23:48:15.391Z,44.88
2019-01-21T23:50:17.111Z,46.10
2019-01-21T23:52:18.444Z,43.60
2019-01-21T23:54:19.805Z,43.90
2019-01-21T23:56:21.549Z,44.88
2019-01-21T23:58:22.905Z,41.45
